Archival Weather

Norman Y Mineta San Jose Intl

San Jose, California (KSJC)

Report from: Sunday, February 18, 2024 9:53 AM PST
Current time: Friday, June 21, 2024 12:29 AM PDT

Current weather – Weather history – Daily summaries
Weather forecast

Temperature16.7°C (62.1°F)
Dew point10.0°C (50.0°F)
Winds 16 kts (8.2 m/s, 18.4 mph) Southeast (140°)
Wind gusts 26 kts (13.4 m/s, 29.9 mph)
Peak wind 29 kts (14.9 m/s, 33.4 mph) Southeast (130°) at 17:28
Visibility10 mi. (16.1 km)
Clouds Few clouds 3,300 ft. (1,006 m)
Few clouds 10,000 ft. (3,048 m)
Altimeter29.92 in.Hg (1013 mB)
Relative humidity65 %
Density altitude380 ft. (116 m)
Sea-level pressure101.3 kPa (1013 mB, 29.92 in.Hg)
Max temp last 6 hours16.7°C (62.1°F)
Min temp last 6 hours11.1°C (52.0°F)
Remarks Automated weather observing station with precipitation discriminator
Pressure falling more slowly
Flight conditions Visual Meteorological Conditions
Raw dataKSJC 181753Z 14016G26KT 10SM FEW033 FEW100 17/10 A2992 RMK AO2 PK WND 13029/1728 SLP131 T01670100 10167 20111 56009
An error has occurred. This application may no longer respond until reloaded. Reload 🗙